Terminal Aerodrome Forecast
Issued by NWS Milwaukee/Sullivan, WI

Home | Current Version | Previous Version | Text Only | Print | Product List | Glossary On
Versions: 1 2 3 4 5 6 7 8 9 10 11 12 13 14 15 16 17 18 19 20 21 22 23 24 25 26 27 28 29 30 31 32 33 34 35 36 37 38 39 40 41 42 43 44
000
FTUS43 KMKX 060307 AAA
TAFMKE
TAF AMD
KMKE 060307Z 0603/0706 19005KT P6SM FEW250
     FM061600 19012G19KT P6SM SCT250
     FM070000 20014G23KT P6SM BKN090
     FM070100 20013G21KT 6SM -TSRA SCT035CB OVC090
     FM070300 20010G17KT 5SM TSRA SCT025 OVC035CB
     FM070500 24010KT 6SM -SHRA OVC040=

USA.gov is the U.S. government's official web portal to all federal, state and local government web resources and services.